Concord, Michigan
Current Conditions -  °F | °C
As of 1:56 PM on Monday 22 Dec 2014 (Local Time) from KJXN Reporting Station
Overcast Overcast  
Wind Chill: 29°   Ceiling: 9500
Heat Index: 37°   Visibility: 9mi
Dew Point: 28°   Wind: 12mph
Humidity: 70%   Direction: 120°ESE
Pressure: 29.93"   Gusts: NA
Location:  42.18°N, 84.64°W
Report Text: KJXN 221856Z 12010KT 9SM FEW040 FEW065 OVC095 03/M02 A2993 RMK AO2 SLP144 T00281022
Loading
Personal Weather Stations






























Interactive Weather Map New forecast layout! Learn more

10-Day Weather Forecast

Advertisements
Track Severe Weather on mobile